West Plains, MO (65775)

8:53 PM CDT on August 28, 2015 (GMT -0500)
Cedar Lane | | Change Station
CLOSE
Current Station
Personal Weather Station
Location: West Plains, MO
Elevation: 1068 ft
Nearby Weather Stations

Elev 1068 ft 36.75 °N, 91.90 °W | Updated 12 seconds ago

Clear
Clear
69.2 °F
Feels Like 69.2 °F
N
0.0
Wind Variable Wind from SSE
Gusts 0.0 mph

Today
High -- | Low -- °F
--% Chance of Precip.
Yesterday
High -- | Low -- °F
Precip. -- in
6:35 AM 7:41 PM
Waxing Gibbous, 99% visible
Pressure 30.02 in
Visibility 10.0 miles
Clouds Clear
Dew Point 58 °F
Humidity 67%
Rainfall 0.00 in
Snow Depth Not available.
UV 0 out of 12
Pollen 10.00 out of 12
Air Quality Not available.
Flu Activity Not available.
METAR KUNO 290053Z AUTO 00000KT 10SM CLR 21/16 A3005 RMK AO2 SLP166 T02110156
Pressure 30.02 in
Visibility 10.0 miles
Clouds Clear
Dew Point 58 °F
Humidity 67%
Rainfall 0.00 in
Snow Depth Not available.
UV 0 out of 12
Pollen 10.00 out of 12
Air Quality Not available.
Flu Activity Not available.
METAR KUNO 290053Z AUTO 00000KT 10SM CLR 21/16 A3005 RMK AO2 SLP166 T02110156

10-Day Weather Forecast

×

Almanac

Astronomy

Aug. 28, 2015 Rise Set
Actual Time
Civil Twilight
Nautical Twilight
Astronomical Twilight
Moon
Length of Visible Light
Length of Day
Tomorrow will be .
, % of the Moon is Illuminated

Today's Extremes

State Highs State Lows

Community

WunderPhotos

Upload Photos

1,850,566 photos uploaded!

WunderBlogs® & News

Nearby

Air Quality

  Air Quality AQ Index Pollutant
Not available.

Snow Depth

Station Depth Elevation

Earthquake Activity

City Distance Mag. Time & Date
Minimum magnitude displayed is 2.5.

Coastal Water Temperatures

Place Temperature

Stations

Nearby Weather Stations

Station Location Temp. Windchill Dew Point Humidity Wind Precip. Elev Updated Type